sensor_id;sensor_type;location;lat;lon;timestamp;pressure;altitude;pressure_sealevel;temperature;humidity
70902;BME280;58548;47.210;8.618;2023-05-16T00:02:08;93814.03;;;19.97;40.41
70902;BME280;58548;47.210;8.618;2023-05-16T00:04:36;93722.47;;;19.41;40.44
70902;BME280;58548;47.210;8.618;2023-05-16T00:07:04;93783.69;;;19.83;40.28
70902;BME280;58548;47.210;8.618;2023-05-16T00:09:33;93807.94;;;19.97;40.47
70902;BME280;58548;47.210;8.618;2023-05-16T00:11:58;93810.31;;;19.98;40.73
70902;BME280;58548;47.210;8.618;2023-05-16T00:14:25;93706.50;;;19.31;40.42
70902;BME280;58548;47.210;8.618;2023-05-16T00:16:53;93809.22;;;19.94;40.39
70902;BME280;58548;47.210;8.618;2023-05-16T00:19:19;93796.25;;;19.93;40.21
70902;BME280;58548;47.210;8.618;2023-05-16T00:21:50;93746.47;;;19.62;40.10
70902;BME280;58548;47.210;8.618;2023-05-16T00:24:16;93789.06;;;19.88;40.37
70902;BME280;58548;47.210;8.618;2023-05-16T00:26:42;93765.66;;;19.80;40.12
70902;BME280;58548;47.210;8.618;2023-05-16T00:29:12;93802.91;;;20.00;40.07
70902;BME280;58548;47.210;8.618;2023-05-16T00:31:43;93774.44;;;19.85;40.17
70902;BME280;58548;47.210;8.618;2023-05-16T00:34:08;93694.41;;;19.40;40.37
70902;BME280;58548;47.210;8.618;2023-05-16T00:36:36;93698.94;;;19.45;40.11
70902;BME280;58548;47.210;8.618;2023-05-16T00:39:02;93707.19;;;19.49;40.15
70902;BME280;58548;47.210;8.618;2023-05-16T00:41:28;93681.16;;;19.40;39.89
70902;BME280;58548;47.210;8.618;2023-05-16T00:43:57;93782.25;;;20.02;40.42
70902;BME280;58548;47.210;8.618;2023-05-16T00:46:26;93782.53;;;20.01;40.25
70902;BME280;58548;47.210;8.618;2023-05-16T00:48:55;93739.16;;;19.80;40.04
70902;BME280;58548;47.210;8.618;2023-05-16T00:51:20;93770.53;;;19.93;39.82
70902;BME280;58548;47.210;8.618;2023-05-16T00:53:49;93678.97;;;19.27;40.34
70902;BME280;58548;47.210;8.618;2023-05-16T00:56:16;93765.94;;;19.83;39.75
70902;BME280;58548;47.210;8.618;2023-05-16T00:58:45;93730.63;;;19.67;40.15
70902;BME280;58548;47.210;8.618;2023-05-16T01:01:15;93775.81;;;19.88;40.63
70902;BME280;58548;47.210;8.618;2023-05-16T01:03:42;93681.63;;;19.32;40.29
70902;BME280;58548;47.210;8.618;2023-05-16T01:06:13;93669.44;;;19.26;40.41
70902;BME280;58548;47.210;8.618;2023-05-16T01:08:44;93745.78;;;19.77;40.15
70902;BME280;58548;47.210;8.618;2023-05-16T01:16:48;93752.25;;;19.92;39.97
70902;BME280;58548;47.210;8.618;2023-05-16T01:22:11;93647.63;;;19.13;40.36
70902;BME280;58548;47.210;8.618;2023-05-16T01:25:10;93762.56;;;19.88;40.30
70902;BME280;58548;47.210;8.618;2023-05-16T01:27:44;93661.78;;;19.29;40.54
70902;BME280;58548;47.210;8.618;2023-05-16T01:30:15;93762.56;;;19.88;40.22
70902;BME280;58548;47.210;8.618;2023-05-16T01:32:44;93688.06;;;19.41;39.97
70902;BME280;58548;47.210;8.618;2023-05-16T01:35:16;93663.88;;;19.27;40.05
70902;BME280;58548;47.210;8.618;2023-05-16T01:37:48;93666.78;;;19.26;40.02
70902;BME280;58548;47.210;8.618;2023-05-16T01:40:22;93773.16;;;19.88;40.75
70902;BME280;58548;47.210;8.618;2023-05-16T01:42:59;93674.25;;;19.34;40.39
70902;BME280;58548;47.210;8.618;2023-05-16T01:45:32;93721.81;;;19.62;40.23
70902;BME280;58548;47.210;8.618;2023-05-16T01:48:09;93733.34;;;19.83;40.31
70902;BME280;58548;47.210;8.618;2023-05-16T01:50:44;93752.84;;;19.99;40.54
70902;BME280;58548;47.210;8.618;2023-05-16T01:53:21;93660.22;;;19.39;40.67
70902;BME280;58548;47.210;8.618;2023-05-16T01:55:56;93754.13;;;19.96;40.17
70902;BME280;58548;47.210;8.618;2023-05-16T01:58:28;93757.03;;;19.95;40.29
70902;BME280;58548;47.210;8.618;2023-05-16T02:01:03;93687.06;;;19.53;40.40
70902;BME280;58548;47.210;8.618;2023-05-16T02:03:30;93739.28;;;19.90;40.72
70902;BME280;58548;47.210;8.618;2023-05-16T02:05:56;93662.91;;;19.44;40.48
70902;BME280;58548;47.210;8.618;2023-05-16T02:08:23;93761.31;;;20.01;40.20
70902;BME280;58548;47.210;8.618;2023-05-16T02:10:57;93638.22;;;19.33;40.35
70902;BME280;58548;47.210;8.618;2023-05-16T02:13:25;93737.72;;;19.99;39.99
70902;BME280;58548;47.210;8.618;2023-05-16T02:15:51;93758.19;;;20.09;40.19
70902;BME280;58548;47.210;8.618;2023-05-16T02:18:19;93663.72;;;19.44;40.58
70902;BME280;58548;47.210;8.618;2023-05-16T02:20:48;93738.22;;;19.91;40.27
70902;BME280;58548;47.210;8.618;2023-05-16T02:23:14;93740.31;;;19.94;40.63
70902;BME280;58548;47.210;8.618;2023-05-16T02:25:40;93745.44;;;20.01;40.74
70902;BME280;58548;47.210;8.618;2023-05-16T02:28:06;93760.59;;;20.11;40.89
70902;BME280;58548;47.210;8.618;2023-05-16T02:30:34;93738.25;;;20.01;40.38
70902;BME280;58548;47.210;8.618;2023-05-16T02:33:03;93751.84;;;20.15;40.81
70902;BME280;58548;47.210;8.618;2023-05-16T02:35:31;93664.88;;;19.59;40.85
70902;BME280;58548;47.210;8.618;2023-05-16T02:37:57;93744.94;;;20.14;40.46
70902;BME280;58548;47.210;8.618;2023-05-16T02:40:23;93746.03;;;20.24;40.46
70902;BME280;58548;47.210;8.618;2023-05-16T02:42:49;93752.69;;;20.26;40.03
70902;BME280;58548;47.210;8.618;2023-05-16T02:45:19;93735.13;;;20.15;40.10
70902;BME280;58548;47.210;8.618;2023-05-16T02:47:45;93632.50;;;19.52;40.13
70902;BME280;58548;47.210;8.618;2023-05-16T02:50:13;93664.94;;;19.69;39.99
70902;BME280;58548;47.210;8.618;2023-05-16T02:52:42;93656.97;;;19.64;40.39
70902;BME280;58548;47.210;8.618;2023-05-16T02:55:08;93746.03;;;20.24;40.68
70902;BME280;58548;47.210;8.618;2023-05-16T02:57:34;93659.63;;;19.69;40.75
70902;BME280;58548;47.210;8.618;2023-05-16T03:00:02;93646.38;;;19.64;40.56
70902;BME280;58548;47.210;8.618;2023-05-16T03:02:32;93647.44;;;19.68;40.09
70902;BME280;58548;47.210;8.618;2023-05-16T03:05:00;93700.91;;;20.08;40.28
70902;BME280;58548;47.210;8.618;2023-05-16T03:07:27;93697.47;;;20.08;40.55
70902;BME280;58548;47.210;8.618;2023-05-16T03:09:53;93648.81;;;19.76;40.53
70902;BME280;58548;47.210;8.618;2023-05-16T03:12:21;93636.59;;;19.70;40.16
70902;BME280;58548;47.210;8.618;2023-05-16T03:14:46;93662.66;;;19.88;40.31
70902;BME280;58548;47.210;8.618;2023-05-16T03:17:12;93623.56;;;19.63;40.21
70902;BME280;58548;47.210;8.618;2023-05-16T03:19:38;93640.00;;;19.65;40.53
70902;BME280;58548;47.210;8.618;2023-05-16T03:22:07;93632.31;;;19.64;40.71
70902;BME280;58548;47.210;8.618;2023-05-16T03:24:33;93727.78;;;20.27;40.38
70902;BME280;58548;47.210;8.618;2023-05-16T03:27:01;93726.47;;;20.30;40.59
70902;BME280;58548;47.210;8.618;2023-05-16T03:29:29;93613.22;;;19.56;40.59
70902;BME280;58548;47.210;8.618;2023-05-16T03:31:55;93723.28;;;20.28;40.35
70902;BME280;58548;47.210;8.618;2023-05-16T03:34:24;93707.09;;;20.24;40.89
70902;BME280;58548;47.210;8.618;2023-05-16T03:36:51;93634.50;;;19.82;40.20
70902;BME280;58548;47.210;8.618;2023-05-16T03:39:19;93619.38;;;19.72;40.36
70902;BME280;58548;47.210;8.618;2023-05-16T03:41:45;93704.72;;;20.33;40.28
70902;BME280;58548;47.210;8.618;2023-05-16T03:44:11;93618.09;;;19.80;40.17
70902;BME280;58548;47.210;8.618;2023-05-16T03:46:37;93715.38;;;20.43;40.59
70902;BME280;58548;47.210;8.618;2023-05-16T03:49:04;93689.06;;;20.26;40.16
70902;BME280;58548;47.210;8.618;2023-05-16T03:51:35;93692.78;;;20.25;40.52
70902;BME280;58548;47.210;8.618;2023-05-16T03:54:01;93629.50;;;19.86;40.19
70902;BME280;58548;47.210;8.618;2023-05-16T03:56:27;93667.28;;;20.09;40.57
70902;BME280;58548;47.210;8.618;2023-05-16T03:58:53;93701.50;;;20.26;40.84
70902;BME280;58548;47.210;8.618;2023-05-16T04:01:19;93701.81;;;20.29;40.52
70902;BME280;58548;47.210;8.618;2023-05-16T04:03:44;93699.69;;;20.26;40.80
70902;BME280;58548;47.210;8.618;2023-05-16T04:06:10;93624.78;;;19.88;40.46
70902;BME280;58548;47.210;8.618;2023-05-16T04:08:39;93719.59;;;20.44;40.43
70902;BME280;58548;47.210;8.618;2023-05-16T04:11:05;93723.63;;;20.52;40.16
70902;BME280;58548;47.210;8.618;2023-05-16T04:13:31;93628.75;;;19.91;40.68
70902;BME280;58548;47.210;8.618;2023-05-16T04:15:59;93717.78;;;20.50;40.63
70902;BME280;58548;47.210;8.618;2023-05-16T04:18:27;93619.16;;;19.84;40.22
70902;BME280;58548;47.210;8.618;2023-05-16T04:20:56;93728.94;;;20.57;40.63
70902;BME280;58548;47.210;8.618;2023-05-16T04:23:21;93731.34;;;20.59;40.16
70902;BME280;58548;47.210;8.618;2023-05-16T04:25:52;93731.63;;;20.62;40.33
70902;BME280;58548;47.210;8.618;2023-05-16T04:28:18;93625.31;;;19.95;40.06
70902;BME280;58548;47.210;8.618;2023-05-16T04:30:46;93724.72;;;20.61;40.37
70902;BME280;58548;47.210;8.618;2023-05-16T04:33:15;93736.69;;;20.64;40.51
70902;BME280;58548;47.210;8.618;2023-05-16T04:35:44;93562.09;;;19.56;40.29
70902;BME280;58548;47.210;8.618;2023-05-16T04:38:12;93650.59;;;20.18;40.44
70902;BME280;58548;47.210;8.618;2023-05-16T04:40:40;93727.66;;;20.65;40.13
70902;BME280;58548;47.210;8.618;2023-05-16T04:43:06;93639.44;;;20.11;40.41
70902;BME280;58548;47.210;8.618;2023-05-16T04:45:32;93566.09;;;19.64;40.55
70902;BME280;58548;47.210;8.618;2023-05-16T04:48:01;93659.38;;;20.24;40.41
70902;BME280;58548;47.210;8.618;2023-05-16T04:50:26;93645.53;;;20.17;40.25
70902;BME280;58548;47.210;8.618;2023-05-16T04:52:55;93738.06;;;20.82;40.24
70902;BME280;58548;47.210;8.618;2023-05-16T04:55:23;93734.34;;;20.78;40.15
70902;BME280;58548;47.210;8.618;2023-05-16T04:57:52;93614.78;;;20.06;40.25
70902;BME280;58548;47.210;8.618;2023-05-16T05:00:18;93694.75;;;20.61;40.04
70902;BME280;58548;47.210;8.618;2023-05-16T05:02:49;93732.50;;;20.89;40.09
70902;BME280;58548;47.210;8.618;2023-05-16T05:05:14;93623.81;;;20.15;40.46
70902;BME280;58548;47.210;8.618;2023-05-16T05:07:43;93631.00;;;20.19;40.05
70902;BME280;58548;47.210;8.618;2023-05-16T05:10:09;93736.22;;;20.93;39.65
70902;BME280;58548;47.210;8.618;2023-05-16T05:12:35;93628.59;;;20.23;40.15
70902;BME280;58548;47.210;8.618;2023-05-16T05:15:01;93670.84;;;20.56;40.19
70902;BME280;58548;47.210;8.618;2023-05-16T05:17:28;93733.06;;;20.96;40.18
70902;BME280;58548;47.210;8.618;2023-05-16T05:19:56;93726.97;;;20.96;40.27
70902;BME280;58548;47.210;8.618;2023-05-16T05:22:24;93709.97;;;20.91;39.94
70902;BME280;58548;47.210;8.618;2023-05-16T05:24:52;93662.41;;;20.64;40.07
70902;BME280;58548;47.210;8.618;2023-05-16T05:27:18;93650.16;;;20.58;39.50
70902;BME280;58548;47.210;8.618;2023-05-16T05:29:47;93740.25;;;21.11;40.03
70902;BME280;58548;47.210;8.618;2023-05-16T05:32:13;93674.59;;;20.75;39.73
70902;BME280;58548;47.210;8.618;2023-05-16T05:34:41;93747.69;;;21.30;39.49
70902;BME280;58548;47.210;8.618;2023-05-16T05:37:07;93648.88;;;20.71;39.31
70902;BME280;58548;47.210;8.618;2023-05-16T05:39:33;93740.28;;;21.37;39.36
70902;BME280;58548;47.210;8.618;2023-05-16T05:42:00;93741.31;;;21.46;39.17
70902;BME280;58548;47.210;8.618;2023-05-16T05:44:31;93576.13;;;20.41;39.17
70902;BME280;58548;47.210;8.618;2023-05-16T05:47:02;93723.28;;;21.38;39.07
70902;BME280;58548;47.210;8.618;2023-05-16T05:49:31;93669.09;;;21.08;38.55
70902;BME280;58548;47.210;8.618;2023-05-16T05:51:59;93756.75;;;21.60;38.56
70902;BME280;58548;47.210;8.618;2023-05-16T05:54:28;93662.72;;;21.04;38.56
70902;BME280;58548;47.210;8.618;2023-05-16T05:56:57;93745.81;;;21.56;38.61
70902;BME280;58548;47.210;8.618;2023-05-16T05:59:23;93695.09;;;21.27;38.67
70902;BME280;58548;47.210;8.618;2023-05-16T06:01:53;93752.50;;;21.59;38.33
70902;BME280;58548;47.210;8.618;2023-05-16T06:04:24;93652.38;;;20.97;39.08
70902;BME280;58548;47.210;8.618;2023-05-16T06:06:52;93672.81;;;21.12;38.99
70902;BME280;58548;47.210;8.618;2023-05-16T06:09:20;93761.81;;;21.66;38.58
70902;BME280;58548;47.210;8.618;2023-05-16T06:11:46;93747.44;;;21.73;38.74
70902;BME280;58548;47.210;8.618;2023-05-16T06:14:18;93747.72;;;21.81;38.64
70902;BME280;58548;47.210;8.618;2023-05-16T06:16:44;93747.16;;;21.84;38.47
70902;BME280;58548;47.210;8.618;2023-05-16T06:19:10;93736.53;;;21.84;38.33
70902;BME280;58548;47.210;8.618;2023-05-16T06:21:43;93748.69;;;22.11;38.48
70902;BME280;58548;47.210;8.618;2023-05-16T06:24:09;93674.38;;;21.65;37.80
70902;BME280;58548;47.210;8.618;2023-05-16T06:26:36;93655.25;;;21.58;37.84
70902;BME280;58548;47.210;8.618;2023-05-16T06:29:02;93657.66;;;21.64;37.56
70902;BME280;58548;47.210;8.618;2023-05-16T06:31:30;93668.75;;;21.87;37.41
70902;BME280;58548;47.210;8.618;2023-05-16T06:33:59;93647.28;;;21.68;36.76
70902;BME280;58548;47.210;8.618;2023-05-16T06:36:25;93663.16;;;21.89;37.26
70902;BME280;58548;47.210;8.618;2023-05-16T06:38:51;93675.91;;;21.92;36.78
70902;BME280;58548;47.210;8.618;2023-05-16T06:41:21;93747.59;;;22.43;36.89
70902;BME280;58548;47.210;8.618;2023-05-16T06:43:51;93669.53;;;21.93;36.90
70902;BME280;58548;47.210;8.618;2023-05-16T06:46:19;93671.66;;;21.91;36.87
70902;BME280;58548;47.210;8.618;2023-05-16T06:48:47;93670.34;;;21.83;36.64
70902;BME280;58548;47.210;8.618;2023-05-16T06:51:15;93668.47;;;21.89;36.83
70902;BME280;58548;47.210;8.618;2023-05-16T06:53:41;93663.44;;;21.82;36.56
70902;BME280;58548;47.210;8.618;2023-05-16T06:56:10;93759.81;;;22.39;36.58
70902;BME280;58548;47.210;8.618;2023-05-16T06:58:35;93676.44;;;21.94;36.36
70902;BME280;58548;47.210;8.618;2023-05-16T07:01:01;93760.31;;;22.41;36.65
70902;BME280;58548;47.210;8.618;2023-05-16T07:03:32;93754.19;;;22.41;36.87
70902;BME280;58548;47.210;8.618;2023-05-16T07:06:03;93707.22;;;22.10;36.90
70902;BME280;58548;47.210;8.618;2023-05-16T07:08:29;93754.50;;;22.44;36.47
70902;BME280;58548;47.210;8.618;2023-05-16T07:10:57;93726.84;;;22.30;36.58
70902;BME280;58548;47.210;8.618;2023-05-16T07:13:28;93587.25;;;21.41;36.69
70902;BME280;58548;47.210;8.618;2023-05-16T07:15:59;93730.53;;;22.39;36.51
70902;BME280;58548;47.210;8.618;2023-05-16T07:18:24;93756.81;;;22.56;36.46
70902;BME280;58548;47.210;8.618;2023-05-16T07:20:53;93762.44;;;22.55;36.49
70902;BME280;58548;47.210;8.618;2023-05-16T07:23:23;93761.88;;;22.58;36.03
70902;BME280;58548;47.210;8.618;2023-05-16T07:25:49;93769.09;;;22.52;36.34
70902;BME280;58548;47.210;8.618;2023-05-16T07:28:20;93766.97;;;22.49;36.17
70902;BME280;58548;47.210;8.618;2023-05-16T07:30:46;93657.34;;;21.76;36.45
70902;BME280;58548;47.210;8.618;2023-05-16T07:33:14;93729.50;;;22.25;36.11
70902;BME280;58548;47.210;8.618;2023-05-16T07:35:43;93657.09;;;21.73;36.16
70902;BME280;58548;47.210;8.618;2023-05-16T07:38:09;93700.34;;;21.99;36.29
70902;BME280;58548;47.210;8.618;2023-05-16T07:40:39;93670.13;;;21.74;36.49
70902;BME280;58548;47.210;8.618;2023-05-16T07:43:05;93746.53;;;22.29;36.52
70902;BME280;58548;47.210;8.618;2023-05-16T07:45:31;93747.88;;;22.26;36.39
70902;BME280;58548;47.210;8.618;2023-05-16T07:48:02;93756.63;;;22.37;36.68
70902;BME280;58548;47.210;8.618;2023-05-16T07:50:28;93691.31;;;21.95;36.71
70902;BME280;58548;47.210;8.618;2023-05-16T07:52:53;93652.28;;;21.75;36.63
70902;BME280;58548;47.210;8.618;2023-05-16T07:55:24;93687.59;;;22.01;36.13
70902;BME280;58548;47.210;8.618;2023-05-16T07:57:52;93776.81;;;22.49;36.44
70902;BME280;58548;47.210;8.618;2023-05-16T08:00:19;93708.28;;;22.04;36.13
70902;BME280;58548;47.210;8.618;2023-05-16T08:02:47;93667.47;;;21.74;35.96
70902;BME280;58548;47.210;8.618;2023-05-16T08:05:17;93680.22;;;21.77;36.62
70902;BME280;58548;47.210;8.618;2023-05-16T08:07:43;93681.28;;;21.71;36.85
70902;BME280;58548;47.210;8.618;2023-05-16T08:10:14;93769.41;;;22.30;37.07
70902;BME280;58548;47.210;8.618;2023-05-16T08:12:40;93756.13;;;22.20;36.66
70902;BME280;58548;47.210;8.618;2023-05-16T08:15:06;93773.94;;;22.29;36.33
70902;BME280;58548;47.210;8.618;2023-05-16T08:17:35;93667.19;;;21.60;36.39
70902;BME280;58548;47.210;8.618;2023-05-16T08:20:02;93691.91;;;21.71;36.19
70902;BME280;58548;47.210;8.618;2023-05-16T08:22:28;93682.88;;;21.67;36.20
70902;BME280;58548;47.210;8.618;2023-05-16T08:24:54;93715.78;;;21.92;36.07
70902;BME280;58548;47.210;8.618;2023-05-16T08:27:28;93769.44;;;22.20;36.24
70902;BME280;58548;47.210;8.618;2023-05-16T08:29:56;93746.63;;;21.98;35.93
70902;BME280;58548;47.210;8.618;2023-05-16T08:32:22;93764.38;;;22.23;35.86
70902;BME280;58548;47.210;8.618;2023-05-16T08:34:50;93779.50;;;22.33;35.95
70902;BME280;58548;47.210;8.618;2023-05-16T08:37:16;93736.47;;;22.10;35.74
70902;BME280;58548;47.210;8.618;2023-05-16T08:39:42;93763.84;;;22.21;35.74
70902;BME280;58548;47.210;8.618;2023-05-16T08:42:10;93697.19;;;21.87;35.93
70902;BME280;58548;47.210;8.618;2023-05-16T08:44:39;93696.66;;;21.90;35.80
70902;BME280;58548;47.210;8.618;2023-05-16T08:47:18;93703.81;;;21.94;36.15
70902;BME280;58548;47.210;8.618;2023-05-16T08:49:47;93753.97;;;22.27;35.23
70902;BME280;58548;47.210;8.618;2023-05-16T08:52:23;93775.78;;;22.44;35.90
70902;BME280;58548;47.210;8.618;2023-05-16T08:54:51;93696.63;;;22.00;36.18
70902;BME280;58548;47.210;8.618;2023-05-16T08:57:19;93773.84;;;22.61;36.16
70902;BME280;58548;47.210;8.618;2023-05-16T08:59:48;93745.41;;;22.46;35.79
70902;BME280;58548;47.210;8.618;2023-05-16T09:02:14;93707.69;;;22.28;35.82
70902;BME280;58548;47.210;8.618;2023-05-16T09:04:44;93781.47;;;22.83;35.42
70902;BME280;58548;47.210;8.618;2023-05-16T09:07:15;93778.75;;;22.88;35.44
70902;BME280;58548;47.210;8.618;2023-05-16T09:09:43;93727.28;;;22.58;35.06
70902;BME280;58548;47.210;8.618;2023-05-16T09:12:12;93779.81;;;22.92;34.82
70902;BME280;58548;47.210;8.618;2023-05-16T09:14:37;93777.94;;;22.98;34.94
70902;BME280;58548;47.210;8.618;2023-05-16T09:17:05;93762.25;;;22.91;34.81
70902;BME280;58548;47.210;8.618;2023-05-16T09:19:37;93707.56;;;22.64;34.72
70902;BME280;58548;47.210;8.618;2023-05-16T09:22:10;93774.97;;;23.04;34.35
70902;BME280;58548;47.210;8.618;2023-05-16T09:24:44;93688.22;;;22.53;34.67
70902;BME280;58548;47.210;8.618;2023-05-16T09:27:13;93607.84;;;21.96;34.72
70902;BME280;58548;47.210;8.618;2023-05-16T09:29:43;93772.63;;;22.98;34.43
70902;BME280;58548;47.210;8.618;2023-05-16T09:32:14;93692.22;;;22.40;34.63
70902;BME280;58548;47.210;8.618;2023-05-16T09:34:49;93693.56;;;22.43;34.70
70902;BME280;58548;47.210;8.618;2023-05-16T09:37:17;93777.69;;;22.94;35.16
70902;BME280;58548;47.210;8.618;2023-05-16T09:39:53;93684.25;;;22.35;35.04
70902;BME280;58548;47.210;8.618;2023-05-16T09:42:22;93767.31;;;22.93;34.96
70902;BME280;58548;47.210;8.618;2023-05-16T09:44:53;93755.94;;;22.82;34.94
70902;BME280;58548;47.210;8.618;2023-05-16T09:47:21;93691.13;;;22.52;35.12
70902;BME280;58548;47.210;8.618;2023-05-16T09:49:51;93758.47;;;23.02;35.06
70902;BME280;58548;47.210;8.618;2023-05-16T09:52:20;93752.09;;;22.98;34.87
70902;BME280;58548;47.210;8.618;2023-05-16T09:54:50;93766.94;;;23.10;34.86
70902;BME280;58548;47.210;8.618;2023-05-16T09:57:19;93689.72;;;22.65;34.93
70902;BME280;58548;47.210;8.618;2023-05-16T09:59:45;93757.19;;;22.95;35.35
70902;BME280;58548;47.210;8.618;2023-05-16T10:02:13;93765.94;;;23.00;35.31
70902;BME280;58548;47.210;8.618;2023-05-16T10:04:41;93667.78;;;22.33;35.98
70902;BME280;58548;47.210;8.618;2023-05-16T10:07:08;93678.41;;;22.43;36.04
70902;BME280;58548;47.210;8.618;2023-05-16T10:09:36;93683.44;;;22.40;35.68
70902;BME280;58548;47.210;8.618;2023-05-16T10:12:07;93777.88;;;23.08;35.81
70902;BME280;58548;47.210;8.618;2023-05-16T10:14:40;93682.06;;;22.53;35.99
70902;BME280;58548;47.210;8.618;2023-05-16T10:17:13;93749.66;;;23.02;35.96
70902;BME280;58548;47.210;8.618;2023-05-16T10:19:41;93762.72;;;23.09;36.04
70902;BME280;58548;47.210;8.618;2023-05-16T10:22:10;93766.38;;;23.13;35.97
70902;BME280;58548;47.210;8.618;2023-05-16T10:24:45;93695.88;;;22.65;36.28
70902;BME280;58548;47.210;8.618;2023-05-16T10:27:17;93774.34;;;23.23;36.19
70902;BME280;58548;47.210;8.618;2023-05-16T10:29:48;93761.28;;;23.22;34.65
70902;BME280;58548;47.210;8.618;2023-05-16T10:32:15;93761.56;;;23.20;33.79
70902;BME280;58548;47.210;8.618;2023-05-16T10:34:44;93778.00;;;23.32;32.73
70902;BME280;58548;47.210;8.618;2023-05-16T10:37:11;93713.00;;;22.94;32.97
70902;BME280;58548;47.210;8.618;2023-05-16T10:39:41;93605.75;;;22.38;32.64
70902;BME280;58548;47.210;8.618;2023-05-16T10:42:09;93783.28;;;23.43;32.49
70902;BME280;58548;47.210;8.618;2023-05-16T10:44:38;93754.63;;;23.24;32.57
70902;BME280;58548;47.210;8.618;2023-05-16T10:47:09;93659.69;;;22.59;32.65
70902;BME280;58548;47.210;8.618;2023-05-16T10:49:39;93772.97;;;23.31;32.76
70902;BME280;58548;47.210;8.618;2023-05-16T10:52:11;93695.78;;;22.76;33.28
70902;BME280;58548;47.210;8.618;2023-05-16T10:54:48;93690.50;;;22.70;33.53
70902;BME280;58548;47.210;8.618;2023-05-16T10:57:21;93779.13;;;23.26;33.86
70902;BME280;58548;47.210;8.618;2023-05-16T10:59:50;93685.72;;;22.67;33.85
70902;BME280;58548;47.210;8.618;2023-05-16T11:02:31;93700.88;;;22.72;33.92
70902;BME280;58548;47.210;8.618;2023-05-16T11:05:01;93787.94;;;23.22;33.84
70902;BME280;58548;47.210;8.618;2023-05-16T11:07:32;93766.91;;;23.15;34.26
70902;BME280;58548;47.210;8.618;2023-05-16T11:10:14;93766.91;;;23.15;34.16
70902;BME280;58548;47.210;8.618;2023-05-16T11:15:25;93791.94;;;23.24;34.39
70902;BME280;58548;47.210;8.618;2023-05-16T11:18:08;93777.47;;;23.30;34.50
70902;BME280;58548;47.210;8.618;2023-05-16T11:20:37;93788.59;;;23.43;34.46
70902;BME280;58548;47.210;8.618;2023-05-16T11:23:24;93790.59;;;23.61;34.32
70902;BME280;58548;47.210;8.618;2023-05-16T11:25:56;93797.44;;;23.73;33.87
70902;BME280;58548;47.210;8.618;2023-05-16T11:28:26;93744.56;;;23.51;33.63
70902;BME280;58548;47.210;8.618;2023-05-16T11:30:55;93801.66;;;23.79;33.38
70902;BME280;58548;47.210;8.618;2023-05-16T11:33:24;93798.28;;;23.68;32.66
70902;BME280;58548;47.210;8.618;2023-05-16T11:38:33;93802.91;;;23.52;32.95
70902;BME280;58548;47.210;8.618;2023-05-16T11:41:11;93790.25;;;23.33;33.17
70902;BME280;58548;47.210;8.618;2023-05-16T11:43:43;93785.84;;;23.08;32.86
70902;BME280;58548;47.210;8.618;2023-05-16T11:46:13;93815.56;;;22.81;33.88
70902;BME280;58548;47.210;8.618;2023-05-16T11:48:40;93800.22;;;22.57;34.58
70902;BME280;58548;47.210;8.618;2023-05-16T11:51:08;93700.41;;;21.78;34.71
70902;BME280;58548;47.210;8.618;2023-05-16T11:53:35;93742.38;;;21.92;35.02
70902;BME280;58548;47.210;8.618;2023-05-16T11:56:02;93803.22;;;21.98;35.33
70902;BME280;58548;47.210;8.618;2023-05-16T11:58:32;93823.69;;;22.08;36.09
70902;BME280;58548;47.210;8.618;2023-05-16T12:00:57;93804.84;;;21.84;37.10
70902;BME280;58548;47.210;8.618;2023-05-16T12:03:25;93802.44;;;21.88;37.11
70902;BME280;58548;47.210;8.618;2023-05-16T12:05:53;93806.16;;;21.92;37.23
70902;BME280;58548;47.210;8.618;2023-05-16T12:08:20;93738.16;;;21.39;37.17
70902;BME280;58548;47.210;8.618;2023-05-16T12:10:55;93810.41;;;21.88;37.83
70902;BME280;58548;47.210;8.618;2023-05-16T12:13:24;93747.69;;;21.50;36.66
70902;BME280;58548;47.210;8.618;2023-05-16T12:15:53;93816.28;;;21.95;36.09
70902;BME280;58548;47.210;8.618;2023-05-16T12:18:20;93831.94;;;22.02;35.88
70902;BME280;58548;47.210;8.618;2023-05-16T12:20:46;93814.94;;;21.77;36.87
70902;BME280;58548;47.210;8.618;2023-05-16T12:23:15;93784.09;;;21.50;36.96
70902;BME280;58548;47.210;8.618;2023-05-16T12:25:46;93831.16;;;21.80;37.08
70902;BME280;58548;47.210;8.618;2023-05-16T12:28:17;93763.63;;;21.30;37.09
70902;BME280;58548;47.210;8.618;2023-05-16T12:30:44;93816.78;;;21.61;36.95
70902;BME280;58548;47.210;8.618;2023-05-16T12:33:15;93745.56;;;21.11;37.08
70902;BME280;58548;47.210;8.618;2023-05-16T12:35:45;93745.28;;;21.07;37.13
70902;BME280;58548;47.210;8.618;2023-05-16T12:38:14;93748.47;;;21.09;36.83
70902;BME280;58548;47.210;8.618;2023-05-16T12:40:45;93839.66;;;21.67;37.19
70902;BME280;58548;47.210;8.618;2023-05-16T12:43:24;93759.88;;;21.10;38.05
70902;BME280;58548;47.210;8.618;2023-05-16T12:45:53;93770.00;;;21.13;37.57
70902;BME280;58548;47.210;8.618;2023-05-16T12:48:21;93819.41;;;21.45;37.69
70902;BME280;58548;47.210;8.618;2023-05-16T12:50:49;93815.19;;;21.39;37.98
70902;BME280;58548;47.210;8.618;2023-05-16T12:53:18;93819.69;;;21.49;38.17
70902;BME280;58548;47.210;8.618;2023-05-16T12:55:47;93838.03;;;21.61;38.40
70902;BME280;58548;47.210;8.618;2023-05-16T12:58:13;93735.69;;;20.91;38.37
70902;BME280;58548;47.210;8.618;2023-05-16T13:00:38;93748.19;;;21.01;38.47
70902;BME280;58548;47.210;8.618;2023-05-16T13:03:09;93819.69;;;21.44;38.45
70902;BME280;58548;47.210;8.618;2023-05-16T13:05:35;93775.84;;;21.15;38.76
70902;BME280;58548;47.210;8.618;2023-05-16T13:08:01;93831.13;;;21.49;38.50
70902;BME280;58548;47.210;8.618;2023-05-16T13:10:32;93850.28;;;21.62;38.65
70902;BME280;58548;47.210;8.618;2023-05-16T13:12:57;93678.81;;;20.56;38.36
70902;BME280;58548;47.210;8.618;2023-05-16T13:15:26;93763.09;;;21.12;38.28
70902;BME280;58548;47.210;8.618;2023-05-16T13:17:52;93825.81;;;21.49;38.30
70902;BME280;58548;47.210;8.618;2023-05-16T13:20:20;93838.03;;;21.50;38.44
70902;BME280;58548;47.210;8.618;2023-05-16T13:22:46;93856.66;;;21.66;38.44